sensor_id;sensor_type;location;lat;lon;timestamp;pressure;altitude;pressure_sealevel;temperature;humidity
4981;BME280;2507;50.392;7.482;2023-01-29T00:01:45;102266.53;;;2.78;59.96
4981;BME280;2507;50.392;7.482;2023-01-29T00:04:11;102271.75;;;2.75;60.07
4981;BME280;2507;50.392;7.482;2023-01-29T00:06:36;102268.19;;;2.87;59.89
4981;BME280;2507;50.392;7.482;2023-01-29T00:09:02;102264.56;;;2.98;59.71
4981;BME280;2507;50.392;7.482;2023-01-29T00:11:28;102274.81;;;3.09;59.56
4981;BME280;2507;50.392;7.482;2023-01-29T00:13:55;102272.81;;;3.26;59.36
4981;BME280;2507;50.392;7.482;2023-01-29T00:16:21;102272.78;;;3.31;58.96
4981;BME280;2507;50.392;7.482;2023-01-29T00:18:46;102273.59;;;3.34;58.63
4981;BME280;2507;50.392;7.482;2023-01-29T00:21:14;102256.53;;;3.18;58.86
4981;BME280;2507;50.392;7.482;2023-01-29T00:23:41;102261.78;;;3.12;58.63
4981;BME280;2507;50.392;7.482;2023-01-29T00:26:07;102263.84;;;2.86;58.70
4981;BME280;2507;50.392;7.482;2023-01-29T00:28:32;102260.59;;;2.70;58.66
4981;BME280;2507;50.392;7.482;2023-01-29T00:30:57;102260.91;;;2.45;59.18
4981;BME280;2507;50.392;7.482;2023-01-29T00:33:23;102251.63;;;2.24;60.33
4981;BME280;2507;50.392;7.482;2023-01-29T00:35:48;102257.03;;;2.00;61.35
4981;BME280;2507;50.392;7.482;2023-01-29T00:38:13;102259.78;;;1.83;61.84
4981;BME280;2507;50.392;7.482;2023-01-29T00:40:39;102259.00;;;1.69;61.89
4981;BME280;2507;50.392;7.482;2023-01-29T00:43:23;102253.94;;;1.62;62.20
4981;BME280;2507;50.392;7.482;2023-01-29T00:46:08;102252.31;;;1.43;62.76
4981;BME280;2507;50.392;7.482;2023-01-29T00:48:34;102238.59;;;1.36;63.51
4981;BME280;2507;50.392;7.482;2023-01-29T00:51:01;102239.53;;;1.23;63.59
4981;BME280;2507;50.392;7.482;2023-01-29T00:53:27;102228.34;;;1.20;63.72
4981;BME280;2507;50.392;7.482;2023-01-29T00:55:52;102230.91;;;1.27;63.62
4981;BME280;2507;50.392;7.482;2023-01-29T00:58:18;102226.69;;;1.10;63.89
4981;BME280;2507;50.392;7.482;2023-01-29T01:00:47;102221.59;;;0.96;64.87
4981;BME280;2507;50.392;7.482;2023-01-29T01:03:13;102217.38;;;0.78;64.98
4981;BME280;2507;50.392;7.482;2023-01-29T01:05:38;102223.44;;;0.76;65.69
4981;BME280;2507;50.392;7.482;2023-01-29T01:08:04;102215.66;;;0.73;65.70
4981;BME280;2507;50.392;7.482;2023-01-29T01:10:58;102211.38;;;0.67;66.48
4981;BME280;2507;50.392;7.482;2023-01-29T01:13:23;102197.69;;;0.55;67.03
4981;BME280;2507;50.392;7.482;2023-01-29T01:15:49;102196.84;;;0.54;67.58
4981;BME280;2507;50.392;7.482;2023-01-29T01:18:14;102194.22;;;0.59;67.82
4981;BME280;2507;50.392;7.482;2023-01-29T01:20:40;102192.50;;;0.62;67.51
4981;BME280;2507;50.392;7.482;2023-01-29T01:23:05;102190.78;;;0.58;67.09
4981;BME280;2507;50.392;7.482;2023-01-29T01:25:31;102191.66;;;0.62;67.02
4981;BME280;2507;50.392;7.482;2023-01-29T01:27:57;102191.69;;;0.48;67.59
4981;BME280;2507;50.392;7.482;2023-01-29T01:30:24;102189.94;;;0.53;67.95
4981;BME280;2507;50.392;7.482;2023-01-29T01:32:50;102175.31;;;0.54;66.81
4981;BME280;2507;50.392;7.482;2023-01-29T01:35:15;102188.28;;;0.42;67.57
4981;BME280;2507;50.392;7.482;2023-01-29T01:37:41;102188.34;;;0.21;68.26
4981;BME280;2507;50.392;7.482;2023-01-29T01:40:13;102197.84;;;0.02;69.34
4981;BME280;2507;50.392;7.482;2023-01-29T01:42:42;102193.59;;;-0.10;69.57
4981;BME280;2507;50.392;7.482;2023-01-29T01:47:49;102197.03;;;-0.18;70.82
4981;BME280;2507;50.392;7.482;2023-01-29T01:50:31;102207.34;;;-0.17;71.13
4981;BME280;2507;50.392;7.482;2023-01-29T01:53:05;102207.34;;;-0.12;71.06
4981;BME280;2507;50.392;7.482;2023-01-29T01:55:32;102203.03;;;-0.12;71.38
4981;BME280;2507;50.392;7.482;2023-01-29T01:58:07;102201.31;;;0.01;71.30
4981;BME280;2507;50.392;7.482;2023-01-29T02:00:33;102207.28;;;0.14;70.01
4981;BME280;2507;50.392;7.482;2023-01-29T02:03:00;102201.25;;;0.13;70.25
4981;BME280;2507;50.392;7.482;2023-01-29T02:05:45;102203.00;;;0.08;70.08
4981;BME280;2507;50.392;7.482;2023-01-29T02:08:35;102222.81;;;-0.05;70.82
4981;BME280;2507;50.392;7.482;2023-01-29T02:11:22;102225.38;;;0.03;71.02
4981;BME280;2507;50.392;7.482;2023-01-29T02:13:48;102228.78;;;0.10;71.12
4981;BME280;2507;50.392;7.482;2023-01-29T02:16:21;102229.63;;;0.22;70.16
4981;BME280;2507;50.392;7.482;2023-01-29T02:18:47;102230.50;;;0.27;69.71
4981;BME280;2507;50.392;7.482;2023-01-29T02:29:28;102217.53;;;0.39;70.06
4981;BME280;2507;50.392;7.482;2023-01-29T02:34:52;102221.00;;;0.29;69.74
4981;BME280;2507;50.392;7.482;2023-01-29T02:40:56;102215.00;;;0.27;69.21
4981;BME280;2507;50.392;7.482;2023-01-29T02:43:29;102208.13;;;0.20;69.53
4981;BME280;2507;50.392;7.482;2023-01-29T02:49:08;102201.25;;;0.13;70.04
4981;BME280;2507;50.392;7.482;2023-01-29T02:51:42;102196.09;;;0.19;69.71
4981;BME280;2507;50.392;7.482;2023-01-29T02:54:27;102194.41;;;0.09;70.42
4981;BME280;2507;50.392;7.482;2023-01-29T02:56:57;102198.72;;;-0.04;71.06
4981;BME280;2507;50.392;7.482;2023-01-29T02:59:39;102206.47;;;-0.04;70.86
4981;BME280;2507;50.392;7.482;2023-01-29T03:02:17;102203.91;;;-0.14;70.73
4981;BME280;2507;50.392;7.482;2023-01-29T03:04:59;102197.88;;;-0.04;70.21
4981;BME280;2507;50.392;7.482;2023-01-29T03:07:30;102206.47;;;-0.08;70.82
4981;BME280;2507;50.392;7.482;2023-01-29T03:10:15;102206.47;;;-0.13;70.03
4981;BME280;2507;50.392;7.482;2023-01-29T03:12:41;102211.66;;;-0.25;70.57
4981;BME280;2507;50.392;7.482;2023-01-29T03:15:11;102201.38;;;-0.29;70.38
4981;BME280;2507;50.392;7.482;2023-01-29T03:17:46;102196.19;;;-0.29;70.82
4981;BME280;2507;50.392;7.482;2023-01-29T03:20:17;102206.53;;;-0.38;70.77
4981;BME280;2507;50.392;7.482;2023-01-29T03:22:51;102212.53;;;-0.60;71.88
4981;BME280;2507;50.392;7.482;2023-01-29T03:25:20;102203.91;;;-0.77;73.08
4981;BME280;2507;50.392;7.482;2023-01-29T03:28:06;102213.34;;;-0.84;73.67
4981;BME280;2507;50.392;7.482;2023-01-29T03:30:54;102208.22;;;-0.73;73.16
4981;BME280;2507;50.392;7.482;2023-01-29T03:33:44;102205.66;;;-0.55;72.91
4981;BME280;2507;50.392;7.482;2023-01-29T03:36:20;102209.94;;;-0.63;72.50
4981;BME280;2507;50.392;7.482;2023-01-29T03:38:47;102220.25;;;-0.42;71.82
4981;BME280;2507;50.392;7.482;2023-01-29T03:46:26;102223.69;;;-0.49;71.30
4981;BME280;2507;50.392;7.482;2023-01-29T03:51:35;102212.50;;;-0.54;71.23
4981;BME280;2507;50.392;7.482;2023-01-29T03:54:17;102220.25;;;-0.68;71.17
4981;BME280;2507;50.392;7.482;2023-01-29T03:57:03;102231.38;;;-0.78;71.60
4981;BME280;2507;50.392;7.482;2023-01-29T03:59:37;102245.94;;;-0.90;72.73
4981;BME280;2507;50.392;7.482;2023-01-29T04:02:15;102246.78;;;-0.96;73.30
4981;BME280;2507;50.392;7.482;2023-01-29T04:04:45;102244.25;;;-0.88;73.67
4981;BME280;2507;50.392;7.482;2023-01-29T04:07:14;102257.16;;;-0.84;73.86
4981;BME280;2507;50.392;7.482;2023-01-29T04:09:48;102254.59;;;-0.76;74.01
4981;BME280;2507;50.392;7.482;2023-01-29T04:12:17;102253.72;;;-0.75;73.39
4981;BME280;2507;50.392;7.482;2023-01-29T04:14:45;102252.88;;;-0.71;73.42
4981;BME280;2507;50.392;7.482;2023-01-29T04:17:15;102248.59;;;-0.68;73.60
4981;BME280;2507;50.392;7.482;2023-01-29T04:19:42;102255.50;;;-0.44;73.25
4981;BME280;2507;50.392;7.482;2023-01-29T04:22:18;102247.75;;;-0.28;72.21
4981;BME280;2507;50.392;7.482;2023-01-29T04:24:45;102241.75;;;-0.21;71.63
4981;BME280;2507;50.392;7.482;2023-01-29T04:27:16;102235.72;;;-0.17;71.70
4981;BME280;2507;50.392;7.482;2023-01-29T04:32:53;102212.50;;;-0.14;71.54
4981;BME280;2507;50.392;7.482;2023-01-29T04:35:39;102200.41;;;0.16;71.08
4981;BME280;2507;50.392;7.482;2023-01-29T04:38:25;102199.53;;;0.15;69.46
4981;BME280;2507;50.392;7.482;2023-01-29T04:41:03;102191.00;;;-0.05;69.90
4981;BME280;2507;50.392;7.482;2023-01-29T04:46:31;102177.25;;;-0.19;71.04
4981;BME280;2507;50.392;7.482;2023-01-29T04:49:09;102164.38;;;-0.13;70.15
4981;BME280;2507;50.392;7.482;2023-01-29T04:51:50;102159.19;;;-0.24;70.60
4981;BME280;2507;50.392;7.482;2023-01-29T04:54:48;102177.25;;;-0.25;70.46
4981;BME280;2507;50.392;7.482;2023-01-29T04:57:30;102180.69;;;-0.14;69.94
4981;BME280;2507;50.392;7.482;2023-01-29T05:00:12;102184.13;;;-0.18;69.84
4981;BME280;2507;50.392;7.482;2023-01-29T05:02:40;102180.72;;;-0.29;70.23
4981;BME280;2507;50.392;7.482;2023-01-29T05:05:08;102184.19;;;-0.44;70.16
4981;BME280;2507;50.392;7.482;2023-01-29T05:07:36;102185.88;;;-0.50;70.73
4981;BME280;2507;50.392;7.482;2023-01-29T05:10:04;102192.75;;;-0.55;71.05
4981;BME280;2507;50.392;7.482;2023-01-29T05:12:32;102213.38;;;-0.55;71.19
4981;BME280;2507;50.392;7.482;2023-01-29T05:15:01;102212.53;;;-0.53;71.18
4981;BME280;2507;50.392;7.482;2023-01-29T05:17:27;102212.50;;;-0.45;71.01
4981;BME280;2507;50.392;7.482;2023-01-29T05:19:54;102211.66;;;-0.23;70.89
4981;BME280;2507;50.392;7.482;2023-01-29T05:22:20;102217.69;;;-0.17;70.66
4981;BME280;2507;50.392;7.482;2023-01-29T05:24:48;102221.13;;;-0.28;70.95
4981;BME280;2507;50.392;7.482;2023-01-29T05:27:26;102215.94;;;-0.24;71.07
4981;BME280;2507;50.392;7.482;2023-01-29T05:30:12;102213.38;;;-0.06;71.52
4981;BME280;2507;50.392;7.482;2023-01-29T05:32:38;102210.72;;;0.16;71.34
4981;BME280;2507;50.392;7.482;2023-01-29T05:35:04;102207.25;;;0.32;70.36
4981;BME280;2507;50.392;7.482;2023-01-29T05:37:29;102208.06;;;0.47;69.57
4981;BME280;2507;50.392;7.482;2023-01-29T05:39:55;102210.63;;;0.49;68.19
4981;BME280;2507;50.392;7.482;2023-01-29T05:42:20;102211.50;;;0.43;68.10
4981;BME280;2507;50.392;7.482;2023-01-29T05:44:45;102215.00;;;0.27;67.43
4981;BME280;2507;50.392;7.482;2023-01-29T05:47:11;102221.03;;;0.11;67.99
4981;BME280;2507;50.392;7.482;2023-01-29T05:49:36;102217.63;;;0.11;68.07
4981;BME280;2507;50.392;7.482;2023-01-29T05:52:01;102223.63;;;0.17;68.43
4981;BME280;2507;50.392;7.482;2023-01-29T05:54:27;102218.44;;;0.26;67.76
4981;BME280;2507;50.392;7.482;2023-01-29T05:56:52;102220.09;;;0.42;67.78
4981;BME280;2507;50.392;7.482;2023-01-29T05:59:17;102223.44;;;0.76;66.76
4981;BME280;2507;50.392;7.482;2023-01-29T06:01:43;102213.06;;;0.83;66.15
4981;BME280;2507;50.392;7.482;2023-01-29T06:04:08;102207.88;;;0.86;66.07
4981;BME280;2507;50.392;7.482;2023-01-29T06:06:33;102195.78;;;0.94;65.83
4981;BME280;2507;50.392;7.482;2023-01-29T06:08:58;102190.50;;;1.10;65.70
4981;BME280;2507;50.392;7.482;2023-01-29T06:11:24;102183.56;;;1.15;65.00
4981;BME280;2507;50.392;7.482;2023-01-29T06:13:49;102167.22;;;1.14;64.17
4981;BME280;2507;50.392;7.482;2023-01-29T06:16:15;102163.00;;;0.96;64.46
4981;BME280;2507;50.392;7.482;2023-01-29T06:18:41;102158.72;;;0.97;64.30
4981;BME280;2507;50.392;7.482;2023-01-29T06:21:09;102157.00;;;0.93;64.13
4981;BME280;2507;50.392;7.482;2023-01-29T06:23:35;102155.41;;;0.80;64.48
4981;BME280;2507;50.392;7.482;2023-01-29T06:26:02;102158.81;;;0.80;64.79
4981;BME280;2507;50.392;7.482;2023-01-29T06:28:27;102154.50;;;0.82;64.89
4981;BME280;2507;50.392;7.482;2023-01-29T06:30:56;102155.34;;;0.86;64.77
4981;BME280;2507;50.392;7.482;2023-01-29T06:33:21;102164.81;;;0.87;64.19
4981;BME280;2507;50.392;7.482;2023-01-29T06:35:46;102178.63;;;0.81;64.47
4981;BME280;2507;50.392;7.482;2023-01-29T06:38:12;102189.84;;;0.76;64.69
4981;BME280;2507;50.392;7.482;2023-01-29T06:40:37;102202.66;;;0.94;63.97
4981;BME280;2507;50.392;7.482;2023-01-29T06:43:03;102196.75;;;0.74;64.16
4981;BME280;2507;50.392;7.482;2023-01-29T06:45:28;102180.34;;;0.76;64.06
4981;BME280;2507;50.392;7.482;2023-01-29T06:47:55;102186.44;;;0.71;64.41
4981;BME280;2507;50.392;7.482;2023-01-29T06:50:20;102188.22;;;0.60;64.64
4981;BME280;2507;50.392;7.482;2023-01-29T06:52:45;102189.06;;;0.60;64.92
4981;BME280;2507;50.392;7.482;2023-01-29T06:55:10;102199.34;;;0.72;64.22
4981;BME280;2507;50.392;7.482;2023-01-29T06:57:36;102204.41;;;0.87;63.29
4981;BME280;2507;50.392;7.482;2023-01-29T07:00:02;102194.13;;;0.81;63.61
4981;BME280;2507;50.392;7.482;2023-01-29T07:02:27;102193.34;;;0.64;64.28
4981;BME280;2507;50.392;7.482;2023-01-29T07:04:52;102194.22;;;0.65;65.01
4981;BME280;2507;50.392;7.482;2023-01-29T07:07:18;102201.06;;;0.70;64.52
4981;BME280;2507;50.392;7.482;2023-01-29T07:09:43;102198.50;;;0.70;64.46
4981;BME280;2507;50.392;7.482;2023-01-29T07:12:09;102203.56;;;0.82;64.64
4981;BME280;2507;50.392;7.482;2023-01-29T07:14:35;102201.09;;;0.64;64.23
4981;BME280;2507;50.392;7.482;2023-01-29T07:17:00;102208.81;;;0.66;64.75
4981;BME280;2507;50.392;7.482;2023-01-29T07:19:25;102206.16;;;0.82;64.70
4981;BME280;2507;50.392;7.482;2023-01-29T07:21:51;102207.84;;;0.88;63.77
4981;BME280;2507;50.392;7.482;2023-01-29T07:24:16;102210.44;;;0.88;63.81
4981;BME280;2507;50.392;7.482;2023-01-29T07:26:41;102214.56;;;1.24;63.42
4981;BME280;2507;50.392;7.482;2023-01-29T07:29:07;102227.34;;;1.40;62.34
4981;BME280;2507;50.392;7.482;2023-01-29T07:31:32;102231.75;;;1.25;62.56
4981;BME280;2507;50.392;7.482;2023-01-29T07:33:58;102220.72;;;1.01;63.72
4981;BME280;2507;50.392;7.482;2023-01-29T07:36:23;102220.69;;;1.04;63.28
4981;BME280;2507;50.392;7.482;2023-01-29T07:38:49;102227.69;;;0.84;64.06
4981;BME280;2507;50.392;7.482;2023-01-29T07:41:14;102232.88;;;0.81;63.86
4981;BME280;2507;50.392;7.482;2023-01-29T07:43:40;102231.94;;;0.91;63.56
4981;BME280;2507;50.392;7.482;2023-01-29T07:46:05;102229.31;;;1.05;63.21
4981;BME280;2507;50.392;7.482;2023-01-29T07:48:30;102228.47;;;0.97;63.29
4981;BME280;2507;50.392;7.482;2023-01-29T07:50:56;102237.81;;;1.19;62.25
4981;BME280;2507;50.392;7.482;2023-01-29T07:53:23;102226.59;;;1.23;62.28
4981;BME280;2507;50.392;7.482;2023-01-29T07:55:48;102228.47;;;1.01;62.66
4981;BME280;2507;50.392;7.482;2023-01-29T07:58:14;102227.56;;;1.07;62.68
4981;BME280;2507;50.392;7.482;2023-01-29T08:00:39;102237.00;;;1.10;63.02
4981;BME280;2507;50.392;7.482;2023-01-29T08:03:08;102234.47;;;1.05;63.80
4981;BME280;2507;50.392;7.482;2023-01-29T08:05:34;102243.06;;;1.10;63.55
4981;BME280;2507;50.392;7.482;2023-01-29T08:07:59;102244.88;;;0.91;62.90
4981;BME280;2507;50.392;7.482;2023-01-29T08:10:24;102240.56;;;0.87;64.01
4981;BME280;2507;50.392;7.482;2023-01-29T08:12:59;102241.34;;;1.06;63.30
4981;BME280;2507;50.392;7.482;2023-01-29T08:15:25;102242.28;;;0.94;63.50
4981;BME280;2507;50.392;7.482;2023-01-29T08:17:52;102246.59;;;0.91;63.59
4981;BME280;2507;50.392;7.482;2023-01-29T08:20:18;102256.88;;;1.01;63.11
4981;BME280;2507;50.392;7.482;2023-01-29T08:22:44;102256.81;;;1.14;62.51
4981;BME280;2507;50.392;7.482;2023-01-29T08:25:10;102250.78;;;1.12;62.29
4981;BME280;2507;50.392;7.482;2023-01-29T08:27:36;102236.84;;;1.35;62.88
4981;BME280;2507;50.392;7.482;2023-01-29T08:30:02;102239.13;;;1.76;61.51
4981;BME280;2507;50.392;7.482;2023-01-29T08:32:28;102237.09;;;2.09;60.65
4981;BME280;2507;50.392;7.482;2023-01-29T08:34:53;102225.16;;;1.93;60.09
4981;BME280;2507;50.392;7.482;2023-01-29T08:37:18;102221.78;;;1.88;60.04
4981;BME280;2507;50.392;7.482;2023-01-29T08:39:44;102236.03;;;2.30;58.53
4981;BME280;2507;50.392;7.482;2023-01-29T08:42:09;102221.47;;;2.17;58.62
4981;BME280;2507;50.392;7.482;2023-01-29T08:44:35;102227.69;;;2.01;59.25
4981;BME280;2507;50.392;7.482;2023-01-29T08:47:00;102241.81;;;1.65;59.56
4981;BME280;2507;50.392;7.482;2023-01-29T08:49:26;102233.13;;;1.74;60.26
4981;BME280;2507;50.392;7.482;2023-01-29T08:51:51;102240.19;;;1.54;60.42
4981;BME280;2507;50.392;7.482;2023-01-29T08:54:18;102245.16;;;1.75;60.73
4981;BME280;2507;50.392;7.482;2023-01-29T08:56:44;102241.50;;;1.98;60.04
4981;BME280;2507;50.392;7.482;2023-01-29T08:59:10;102244.22;;;1.86;59.59
4981;BME280;2507;50.392;7.482;2023-01-29T09:01:35;102242.41;;;1.97;59.34
4981;BME280;2507;50.392;7.482;2023-01-29T09:04:01;102252.78;;;1.91;58.94
4981;BME280;2507;50.392;7.482;2023-01-29T09:06:26;102249.31;;;1.94;59.28
4981;BME280;2507;50.392;7.482;2023-01-29T09:08:51;102241.34;;;2.15;59.75
4981;BME280;2507;50.392;7.482;2023-01-29T09:11:17;102237.63;;;2.43;58.13
4981;BME280;2507;50.392;7.482;2023-01-29T09:13:42;102252.44;;;2.28;59.04
4981;BME280;2507;50.392;7.482;2023-01-29T09:16:08;102254.94;;;2.37;58.79
4981;BME280;2507;50.392;7.482;2023-01-29T09:18:33;102266.03;;;2.48;58.75
4981;BME280;2507;50.392;7.482;2023-01-29T09:20:58;102264.19;;;2.59;58.80
4981;BME280;2507;50.392;7.482;2023-01-29T09:23:26;102248.41;;;2.78;57.86
4981;BME280;2507;50.392;7.482;2023-01-29T09:25:51;102250.75;;;2.96;57.62
4981;BME280;2507;50.392;7.482;2023-01-29T09:28:16;102260.03;;;3.14;56.87
4981;BME280;2507;50.392;7.482;2023-01-29T09:30:42;102265.13;;;3.20;56.13
4981;BME280;2507;50.392;7.482;2023-01-29T09:33:08;102269.38;;;3.27;56.11
4981;BME280;2507;50.392;7.482;2023-01-29T09:35:34;102262.06;;;2.89;57.01
4981;BME280;2507;50.392;7.482;2023-01-29T09:37:59;102265.59;;;2.84;57.37
4981;BME280;2507;50.392;7.482;2023-01-29T09:43:16;102269.50;;;2.48;57.82
4981;BME280;2507;50.392;7.482;2023-01-29T09:45:50;102276.44;;;2.45;58.76
4981;BME280;2507;50.392;7.482;2023-01-29T09:48:19;102277.63;;;2.12;58.90
4981;BME280;2507;50.392;7.482;2023-01-29T09:50:49;102275.09;;;2.09;59.13
4981;BME280;2507;50.392;7.482;2023-01-29T09:53:38;102263.75;;;2.19;59.36
4981;BME280;2507;50.392;7.482;2023-01-29T09:56:11;102263.78;;;2.16;59.67
4981;BME280;2507;50.392;7.482;2023-01-29T09:58:39;102245.75;;;2.08;59.17
4981;BME280;2507;50.392;7.482;2023-01-29T10:01:31;102230.94;;;2.21;59.13
4981;BME280;2507;50.392;7.482;2023-01-29T10:12:52;102197.81;;;3.69;55.46
4981;BME280;2507;50.392;7.482;2023-01-29T10:18:42;102205.97;;;3.45;56.06
4981;BME280;2507;50.392;7.482;2023-01-29T10:21:40;102205.53;;;3.17;57.99
4981;BME280;2507;50.392;7.482;2023-01-29T10:24:44;102187.91;;;3.39;56.32
4981;BME280;2507;50.392;7.482;2023-01-29T10:27:17;102191.09;;;3.56;55.74
4981;BME280;2507;50.392;7.482;2023-01-29T10:29:44;102188.34;;;3.65;55.62
4981;BME280;2507;50.392;7.482;2023-01-29T10:32:24;102185.34;;;3.89;55.15
4981;BME280;2507;50.392;7.482;2023-01-29T10:35:22;102179.22;;;3.91;54.35
4981;BME280;2507;50.392;7.482;2023-01-29T10:37:51;102170.28;;;4.06;54.26
4981;BME280;2507;50.392;7.482;2023-01-29T10:40:23;102161.44;;;4.16;53.32
4981;BME280;2507;50.392;7.482;2023-01-29T10:43:05;102154.19;;;4.32;52.98
4981;BME280;2507;50.392;7.482;2023-01-29T10:45:42;102153.50;;;4.24;53.32
4981;BME280;2507;50.392;7.482;2023-01-29T10:51:23;102156.56;;;4.82;51.97
4981;BME280;2507;50.392;7.482;2023-01-29T10:59:53;102133.06;;;5.23;50.78
4981;BME280;2507;50.392;7.482;2023-01-29T11:02:22;102134.59;;;5.32;50.20
4981;BME280;2507;50.392;7.482;2023-01-29T11:04:47;102123.53;;;5.24;50.57
4981;BME280;2507;50.392;7.482;2023-01-29T11:07:15;102121.72;;;5.26;51.09
4981;BME280;2507;50.392;7.482;2023-01-29T11:09:59;102109.56;;;5.26;50.63
4981;BME280;2507;50.392;7.482;2023-01-29T11:12:30;102104.97;;;5.37;49.73
4981;BME280;2507;50.392;7.482;2023-01-29T11:18:17;102097.34;;;4.58;51.35
4981;BME280;2507;50.392;7.482;2023-01-29T11:20:44;102102.06;;;4.39;51.75
4981;BME280;2507;50.392;7.482;2023-01-29T11:23:31;102089.59;;;4.55;52.46
4981;BME280;2507;50.392;7.482;2023-01-29T11:25:58;102095.25;;;4.73;52.46
4981;BME280;2507;50.392;7.482;2023-01-29T11:28:37;102087.25;;;5.17;50.98
4981;BME280;2507;50.392;7.482;2023-01-29T11:31:03;102088.81;;;5.25;51.58
4981;BME280;2507;50.392;7.482;2023-01-29T11:33:30;102082.69;;;5.27;51.70
4981;BME280;2507;50.392;7.482;2023-01-29T11:35:56;102081.97;;;5.20;51.33
4981;BME280;2507;50.392;7.482;2023-01-29T11:38:25;102071.50;;;5.22;51.41
4981;BME280;2507;50.392;7.482;2023-01-29T11:40:51;102065.81;;;5.42;51.29
4981;BME280;2507;50.392;7.482;2023-01-29T11:43:20;102065.66;;;5.78;50.74
4981;BME280;2507;50.392;7.482;2023-01-29T11:45:49;102062.56;;;5.98;49.43
4981;BME280;2507;50.392;7.482;2023-01-29T11:48:17;102059.91;;;6.29;48.97
4981;BME280;2507;50.392;7.482;2023-01-29T11:50:50;102063.94;;;6.09;48.84
4981;BME280;2507;50.392;7.482;2023-01-29T11:55:50;102055.22;;;5.80;48.87
4981;BME280;2507;50.392;7.482;2023-01-29T11:58:25;102050.78;;;5.85;49.11
4981;BME280;2507;50.392;7.482;2023-01-29T12:00:51;102035.47;;;5.71;49.55
4981;BME280;2507;50.392;7.482;2023-01-29T12:03:39;102040.72;;;5.39;50.08
4981;BME280;2507;50.392;7.482;2023-01-29T12:06:17;102041.53;;;5.07;51.46
4981;BME280;2507;50.392;7.482;2023-01-29T12:09:00;102040.03;;;5.33;51.18
4981;BME280;2507;50.392;7.482;2023-01-29T12:11:33;102035.13;;;5.53;50.99
4981;BME280;2507;50.392;7.482;2023-01-29T12:14:04;102024.00;;;5.78;49.06
4981;BME280;2507;50.392;7.482;2023-01-29T12:16:45;102016.38;;;5.72;50.20
4981;BME280;2507;50.392;7.482;2023-01-29T12:19:33;102010.41;;;5.99;49.50
4981;BME280;2507;50.392;7.482;2023-01-29T12:22:07;102007.56;;;6.07;48.73
4981;BME280;2507;50.392;7.482;2023-01-29T12:24:56;101997.53;;;5.63;49.61
4981;BME280;2507;50.392;7.482;2023-01-29T12:27:28;101984.69;;;5.57;49.72
4981;BME280;2507;50.392;7.482;2023-01-29T12:30:02;101976.56;;;5.38;50.49
4981;BME280;2507;50.392;7.482;2023-01-29T12:32:38;101965.66;;;5.55;49.77
4981;BME280;2507;50.392;7.482;2023-01-29T12:35:27;101959.38;;;5.92;49.05
4981;BME280;2507;50.392;7.482;2023-01-29T12:38:02;101952.53;;;5.59;50.12
4981;BME280;2507;50.392;7.482;2023-01-29T12:40:39;101942.75;;;5.37;51.41
4981;BME280;2507;50.392;7.482;2023-01-29T12:43:31;101936.50;;;5.42;51.39
4981;BME280;2507;50.392;7.482;2023-01-29T12:46:00;101932.81;;;5.80;50.40
4981;BME280;2507;50.392;7.482;2023-01-29T12:48:32;101944.88;;;5.84;50.39
4981;BME280;2507;50.392;7.482;2023-01-29T12:51:11;101944.69;;;5.90;49.72
4981;BME280;2507;50.392;7.482;2023-01-29T12:53:42;101937.03;;;6.13;49.34
4981;BME280;2507;50.392;7.482;2023-01-29T12:56:13;101936.66;;;5.97;49.33
4981;BME280;2507;50.392;7.482;2023-01-29T13:01:14;101927.44;;;5.86;49.39
4981;BME280;2507;50.392;7.482;2023-01-29T13:03:48;101938.97;;;6.06;49.33
4981;BME280;2507;50.392;7.482;2023-01-29T13:06:25;101929.22;;;5.85;48.85
4981;BME280;2507;50.392;7.482;2023-01-29T13:09:20;101927.41;;;5.87;49.03
4981;BME280;2507;50.392;7.482;2023-01-29T13:11:54;101924.03;;;5.84;48.95
4981;BME280;2507;50.392;7.482;2023-01-29T13:14:32;101921.22;;;5.61;49.23
4981;BME280;2507;50.392;7.482;2023-01-29T13:17:18;101912.94;;;5.77;49.07
4981;BME280;2507;50.392;7.482;2023-01-29T13:19:53;101907.81;;;5.45;50.23
4981;BME280;2507;50.392;7.482;2023-01-29T13:22:25;101904.72;;;5.33;51.16
4981;BME280;2507;50.392;7.482;2023-01-29T13:24:52;101902.38;;;5.24;50.96
4981;BME280;2507;50.392;7.482;2023-01-29T13:27:24;101901.31;;;5.29;50.81
4981;BME280;2507;50.392;7.482;2023-01-29T13:29:51;101904.53;;;5.39;50.63
4981;BME280;2507;50.392;7.482;2023-01-29T13:32:24;101893.50;;;5.29;50.78
4981;BME280;2507;50.392;7.482;2023-01-29T13:34:52;101886.09;;;5.15;51.56
4981;BME280;2507;50.392;7.482;2023-01-29T13:37:22;101892.78;;;5.24;51.32
4981;BME280;2507;50.392;7.482;2023-01-29T13:39:53;101892.59;;;5.32;51.46
4981;BME280;2507;50.392;7.482;2023-01-29T13:42:39;101890.69;;;5.37;51.22
4981;BME280;2507;50.392;7.482;2023-01-29T13:45:08;101884.28;;;5.48;51.18
4981;BME280;2507;50.392;7.482;2023-01-29T13:47:41;101883.47;;;5.46;50.77
4981;BME280;2507;50.392;7.482;2023-01-29T13:50:27;101877.25;;;5.52;50.96
4981;BME280;2507;50.392;7.482;2023-01-29T13:53:02;101873.34;;;5.37;51.03
4981;BME280;2507;50.392;7.482;2023-01-29T13:55:32;101874.09;;;5.41;51.41
4981;BME280;2507;50.392;7.482;2023-01-29T13:58:00;101864.78;;;5.34;51.71
4981;BME280;2507;50.392;7.482;2023-01-29T14:08:01;101852.56;;;5.36;51.61
4981;BME280;2507;50.392;7.482;2023-01-29T14:10:31;101844.06;;;5.31;51.90
4981;BME280;2507;50.392;7.482;2023-01-29T14:15:27;101838.63;;;5.38;51.76
4981;BME280;2507;50.392;7.482;2023-01-29T14:20:49;101831.31;;;5.49;51.36
4981;BME280;2507;50.392;7.482;2023-01-29T14:23:23;101833.97;;;5.48;50.98
4981;BME280;2507;50.392;7.482;2023-01-29T14:25:51;101830.72;;;5.41;51.03
4981;BME280;2507;50.392;7.482;2023-01-29T14:28:22;101834.09;;;5.45;51.23
4981;BME280;2507;50.392;7.482;2023-01-29T14:30:49;101816.03;;;5.39;51.44
4981;BME280;2507;50.392;7.482;2023-01-29T14:33:30;101822.06;;;5.41;50.96
4981;BME280;2507;50.392;7.482;2023-01-29T14:35:58;101815.13;;;5.12;52.18
4981;BME280;2507;50.392;7.482;2023-01-29T14:38:27;101815.06;;;5.13;52.22
4981;BME280;2507;50.392;7.482;2023-01-29T14:41:31;101818.31;;;5.22;51.99
4981;BME280;2507;50.392;7.482;2023-01-29T14:47:00;101800.38;;;5.11;52.56
4981;BME280;2507;50.392;7.482;2023-01-29T14:49:50;101793.13;;;5.22;52.14
4981;BME280;2507;50.392;7.482;2023-01-29T14:52:17;101797.06;;;5.06;52.20
4981;BME280;2507;50.392;7.482;2023-01-29T14:54:46;101804.75;;;5.10;52.24
4981;BME280;2507;50.392;7.482;2023-01-29T14:57:15;101798.84;;;5.04;52.57
4981;BME280;2507;50.392;7.482;2023-01-29T15:00:23;101802.91;;;4.85;52.67
4981;BME280;2507;50.392;7.482;2023-01-29T15:02:51;101807.69;;;4.68;52.74